Time;durP1;ratioP1;P1;durP2;ratioP2;P2;SDS_P1;SDS_P2;PMS_P1;PMS_P2;Temp;Humidity;BMP_temperature;BMP_pressure;BME280_temperature;BME280_humidity;BME280_pressure;Samples;Min_cycle;Max_cycle;Signal;HPM_P1;HPM_P2
2023/09/15 00:00:23;;;;;;;3.85;1.40;;;12.60;99.90;;;;;;5066180;28;20072;-88
2023/09/15 00:02:51;;;;;;;2.17;1.17;;;12.50;99.90;;;;;;5061519;28;20198;-88
2023/09/15 00:05:18;;;;;;;2.90;1.40;;;12.50;99.90;;;;;;5070213;28;20127;-88
2023/09/15 00:07:44;;;;;;;1.38;1.15;;;12.50;99.90;;;;;;5049287;28;20186;-88
2023/09/15 00:10:12;;;;;;;2.95;1.27;;;12.50;99.90;;;;;;5057348;28;20060;-87
2023/09/15 00:12:40;;;;;;;2.25;1.20;;;12.50;99.90;;;;;;5040371;28;20048;-87
2023/09/15 00:15:10;;;;;;;2.38;1.30;;;12.50;99.90;;;;;;5060525;28;20031;-88
2023/09/15 00:17:41;;;;;;;1.85;1.20;;;12.40;99.90;;;;;;5068270;28;20047;-87
2023/09/15 00:20:14;;;;;;;3.03;1.20;;;12.40;99.90;;;;;;5068474;28;20045;-87
2023/09/15 00:22:50;;;;;;;2.30;1.30;;;12.40;99.90;;;;;;5049120;28;20040;-88
2023/09/15 00:25:22;;;;;;;1.95;1.23;;;12.30;99.90;;;;;;5071496;28;20101;-88
2023/09/15 00:27:51;;;;;;;1.85;1.20;;;12.30;99.90;;;;;;5070426;28;20823;-87
2023/09/15 00:30:17;;;;;;;1.70;1.15;;;11.40;99.90;;;;;;5059202;28;20044;-88
2023/09/15 00:32:45;;;;;;;3.03;1.27;;;12.20;99.90;;;;;;5078987;28;20417;-87
2023/09/15 00:35:11;;;;;;;1.27;1.08;;;12.30;99.90;;;;;;5080391;28;20443;-87
2023/09/15 00:37:37;;;;;;;2.05;1.20;;;12.20;99.90;;;;;;5036697;28;20422;-87
2023/09/15 00:40:08;;;;;;;1.95;1.20;;;12.20;99.90;;;;;;5071632;28;20055;-87
2023/09/15 00:42:34;;;;;;;3.55;1.23;;;12.20;99.90;;;;;;5048305;28;20486;-87
2023/09/15 00:45:04;;;;;;;3.28;1.33;;;12.20;99.90;;;;;;5052976;28;20044;-88
2023/09/15 00:47:36;;;;;;;2.22;1.20;;;12.20;99.90;;;;;;5062824;28;20051;-88
2023/09/15 00:50:03;;;;;;;2.00;1.10;;;12.10;99.90;;;;;;5050274;28;20048;-88
2023/09/15 00:52:31;;;;;;;2.67;1.30;;;12.10;99.90;;;;;;5061219;28;20376;-87
2023/09/15 00:54:59;;;;;;;2.13;1.15;;;12.10;99.90;;;;;;5072917;28;20044;-87
2023/09/15 00:57:25;;;;;;;2.17;1.20;;;12.10;99.90;;;;;;5079965;28;20381;-88
2023/09/15 00:59:52;;;;;;;1.85;1.10;;;12.10;99.90;;;;;;5070003;28;20130;-87
2023/09/15 01:02:18;;;;;;;1.50;1.20;;;12.00;99.90;;;;;;5063622;28;20048;-87
2023/09/15 01:04:44;;;;;;;1.15;1.05;;;12.00;99.90;;;;;;5063479;28;20401;-87
2023/09/15 01:07:10;;;;;;;1.50;1.13;;;12.00;99.90;;;;;;5073206;28;20119;-87
2023/09/15 01:09:36;;;;;;;2.90;1.40;;;12.00;99.90;;;;;;5070396;28;20565;-87
2023/09/15 01:12:05;;;;;;;1.52;1.02;;;11.90;99.90;;;;;;5066412;28;21126;-87
2023/09/15 01:14:30;;;;;;;2.25;1.15;;;11.90;99.90;;;;;;5045035;28;20052;-88
2023/09/15 01:17:09;;;;;;;2.15;1.30;;;11.90;99.90;;;;;;5069430;28;20036;-87
2023/09/15 01:20:09;;;;;;;2.72;1.38;;;11.90;99.90;;;;;;5064667;28;20135;-87
2023/09/15 01:23:06;;;;;;;1.90;1.08;;;10.60;99.90;;;;;;5070901;28;20040;-87
2023/09/15 01:26:00;;;;;;;2.50;1.30;;;11.90;99.90;;;;;;5063173;28;20115;-87
2023/09/15 01:28:59;;;;;;;2.05;1.25;;;11.80;99.90;;;;;;5067662;28;20048;-88
2023/09/15 01:31:25;;;;;;;3.92;1.33;;;11.80;99.90;;;;;;5055569;28;20051;-87
2023/09/15 01:33:51;;;;;;;1.95;1.10;;;11.80;99.90;;;;;;5085008;28;20497;-87
2023/09/15 01:36:17;;;;;;;1.83;1.05;;;11.80;99.90;;;;;;5071669;28;20477;-87
2023/09/15 01:38:43;;;;;;;1.92;1.20;;;11.80;99.90;;;;;;5068691;28;20113;-87
2023/09/15 01:41:09;;;;;;;4.72;1.55;;;11.80;99.90;;;;;;5053368;28;20387;-87
2023/09/15 01:43:34;;;;;;;3.08;1.40;;;11.70;99.90;;;;;;5069296;28;20044;-87
2023/09/15 01:46:00;;;;;;;0.90;0.85;;;11.80;99.90;;;;;;5067771;28;20044;-87
2023/09/15 01:48:26;;;;;;;1.10;1.00;;;11.70;99.90;;;;;;5066544;28;20032;-87
2023/09/15 01:50:54;;;;;;;2.03;1.35;;;11.70;99.90;;;;;;5052046;28;20486;-87
2023/09/15 01:53:20;;;;;;;1.75;1.02;;;11.70;99.90;;;;;;5082355;28;20040;-88
2023/09/15 01:55:48;;;;;;;1.13;1.02;;;11.70;99.90;;;;;;5050445;28;20036;-87
2023/09/15 01:58:14;;;;;;;2.47;1.10;;;11.70;99.90;;;;;;5072105;28;20040;-88
2023/09/15 02:00:40;;;;;;;1.10;1.00;;;11.60;99.90;;;;;;5058288;28;20059;-88
2023/09/15 02:03:06;;;;;;;2.08;1.13;;;11.60;99.90;;;;;;5049082;28;20043;-87
2023/09/15 02:05:32;;;;;;;2.20;1.08;;;11.60;99.90;;;;;;5051517;28;20036;-87
2023/09/15 02:07:58;;;;;;;1.25;1.00;;;11.60;99.90;;;;;;5083216;28;20098;-87
2023/09/15 02:10:23;;;;;;;1.83;1.08;;;11.60;99.90;;;;;;5042059;28;20127;-87
2023/09/15 02:12:50;;;;;;;1.23;1.10;;;11.60;99.90;;;;;;5048946;28;20068;-87
2023/09/15 02:15:17;;;;;;;1.25;1.10;;;11.60;99.90;;;;;;5066827;28;20400;-87
2023/09/15 02:17:43;;;;;;;3.03;1.33;;;11.50;99.90;;;;;;5071905;28;20497;-87
2023/09/15 02:20:11;;;;;;;1.38;0.90;;;11.50;99.90;;;;;;5086914;28;20080;-87
2023/09/15 02:22:42;;;;;;;2.80;1.38;;;11.50;99.90;;;;;;5048769;28;20040;-87
2023/09/15 02:25:11;;;;;;;2.08;1.20;;;11.50;99.90;;;;;;5056555;28;20044;-87
2023/09/15 02:27:37;;;;;;;1.25;1.02;;;11.50;99.90;;;;;;5066091;28;20444;-87
2023/09/15 02:30:04;;;;;;;1.58;1.10;;;11.50;99.90;;;;;;5036739;28;20040;-87
2023/09/15 02:32:30;;;;;;;2.25;1.23;;;11.40;99.90;;;;;;5068388;28;20504;-86
2023/09/15 02:34:56;;;;;;;0.80;0.80;;;11.40;99.90;;;;;;5081713;28;20082;-87
2023/09/15 02:37:22;;;;;;;1.23;1.00;;;11.40;99.90;;;;;;5042098;28;20497;-87
2023/09/15 02:39:48;;;;;;;1.13;1.00;;;11.40;99.90;;;;;;5067808;28;20102;-87
2023/09/15 02:42:13;;;;;;;1.85;1.10;;;11.40;99.90;;;;;;5064874;28;20048;-87
2023/09/15 02:44:41;;;;;;;2.00;1.10;;;11.40;99.90;;;;;;5033414;28;20123;-87
2023/09/15 02:47:06;;;;;;;1.27;1.02;;;11.30;99.90;;;;;;5035992;28;20044;-87
2023/09/15 02:49:32;;;;;;;4.90;1.83;;;11.30;99.90;;;;;;5039214;28;20035;-87
2023/09/15 02:51:59;;;;;;;3.35;1.58;;;11.30;99.90;;;;;;5041659;28;20032;-87
2023/09/15 02:54:25;;;;;;;2.83;1.52;;;11.30;99.90;;;;;;5075609;28;20042;-87
2023/09/15 02:56:50;;;;;;;3.55;1.70;;;11.20;99.90;;;;;;5047083;28;20465;-87
2023/09/15 02:59:16;;;;;;;2.88;1.50;;;11.20;99.90;;;;;;5041389;28;20044;-87
2023/09/15 03:01:43;;;;;;;4.03;1.60;;;11.20;99.90;;;;;;5078316;28;20044;-87
2023/09/15 03:04:09;;;;;;;3.83;1.50;;;11.20;99.90;;;;;;5066317;28;20055;-87
2023/09/15 03:06:34;;;;;;;2.47;1.38;;;11.20;99.90;;;;;;5034158;28;20043;-87
2023/09/15 03:09:00;;;;;;;2.63;1.52;;;11.20;99.90;;;;;;5065694;28;20042;-87
2023/09/15 03:11:26;;;;;;;3.17;1.50;;;;;;;;;;5059180;28;20102;-87
2023/09/15 03:13:52;;;;;;;3.67;1.67;;;11.10;99.90;;;;;;5068114;28;20044;-87
2023/09/15 03:16:18;;;;;;;4.57;1.52;;;11.10;99.90;;;;;;5071706;28;20048;-87
2023/09/15 03:18:46;;;;;;;4.65;1.50;;;11.10;99.90;;;;;;5062744;28;20071;-87
2023/09/15 03:21:12;;;;;;;2.22;1.40;;;11.10;99.90;;;;;;5056655;28;20127;-87
2023/09/15 03:23:39;;;;;;;3.00;1.50;;;11.10;99.90;;;;;;5050293;28;20119;-87
2023/09/15 03:26:05;;;;;;;2.85;1.35;;;11.10;99.90;;;;;;5050695;28;20043;-87
2023/09/15 03:28:32;;;;;;;3.75;1.60;;;11.00;99.90;;;;;;5061524;28;20489;-87
2023/09/15 03:30:58;;;;;;;4.20;1.52;;;11.00;99.90;;;;;;5069671;28;20040;-87
2023/09/15 03:33:24;;;;;;;4.63;1.75;;;11.00;99.90;;;;;;5082001;28;20039;-87
2023/09/15 03:35:50;;;;;;;2.65;1.40;;;11.00;99.90;;;;;;5052124;28;20040;-87
2023/09/15 03:38:16;;;;;;;3.60;1.52;;;11.00;99.90;;;;;;5066492;28;21405;-87
2023/09/15 03:40:41;;;;;;;3.60;1.60;;;11.00;99.90;;;;;;5059179;28;20054;-87
2023/09/15 03:43:07;;;;;;;3.00;1.58;;;11.00;99.90;;;;;;5052947;28;20048;-87
2023/09/15 03:45:34;;;;;;;5.50;1.92;;;11.00;99.90;;;;;;5070148;28;20036;-87
2023/09/15 03:47:59;;;;;;;4.97;1.92;;;10.90;99.90;;;;;;5046466;28;20272;-87
2023/09/15 03:50:26;;;;;;;6.90;2.00;;;10.90;99.90;;;;;;5059860;28;20113;-87
2023/09/15 03:52:52;;;;;;;4.90;1.92;;;11.00;99.90;;;;;;5061558;28;20044;-87
2023/09/15 03:55:19;;;;;;;4.43;1.90;;;10.90;99.90;;;;;;5071521;28;20059;-87
2023/09/15 03:57:44;;;;;;;5.68;2.00;;;10.80;99.90;;;;;;5071257;28;20127;-87
2023/09/15 04:00:17;;;;;;;5.40;1.90;;;10.80;99.90;;;;;;5067922;28;20466;-87
2023/09/15 04:02:43;;;;;;;6.15;2.25;;;10.80;99.90;;;;;;5064789;28;20123;-87
2023/09/15 04:05:10;;;;;;;4.18;1.90;;;10.80;99.90;;;;;;5069588;28;20183;-87
2023/09/15 04:07:37;;;;;;;1.77;1.27;;;10.70;99.90;;;;;;5069642;28;20109;-87
2023/09/15 04:10:05;;;;;;;2.25;1.40;;;10.80;99.90;;;;;;5038062;28;20036;-87
2023/09/15 04:12:32;;;;;;;3.47;1.48;;;10.70;99.90;;;;;;5046760;28;20067;-87
2023/09/15 04:14:58;;;;;;;2.17;1.40;;;10.70;99.90;;;;;;5054108;28;20071;-87
2023/09/15 04:17:24;;;;;;;2.45;1.38;;;10.70;99.90;;;;;;5066164;28;20075;-87
2023/09/15 04:19:50;;;;;;;2.67;1.33;;;10.70;99.90;;;;;;5056893;28;20528;-87
2023/09/15 04:22:16;;;;;;;1.60;1.33;;;10.70;99.90;;;;;;5064848;28;20051;-87
2023/09/15 04:24:42;;;;;;;3.60;1.48;;;10.70;99.90;;;;;;5068645;28;20052;-87
2023/09/15 04:27:07;;;;;;;2.67;1.40;;;10.60;99.90;;;;;;5066449;28;20048;-87
2023/09/15 04:29:33;;;;;;;2.40;1.20;;;10.60;99.90;;;;;;5067147;28;20183;-87
2023/09/15 04:31:59;;;;;;;2.55;1.50;;;10.60;99.90;;;;;;5051655;28;20036;-87
2023/09/15 04:34:25;;;;;;;2.42;1.38;;;11.20;99.90;;;;;;5075488;28;20501;-87
2023/09/15 04:36:51;;;;;;;2.28;1.30;;;10.60;99.90;;;;;;5054291;28;20040;-87
2023/09/15 04:39:17;;;;;;;2.30;1.30;;;10.60;99.90;;;;;;5046395;28;20519;-87
2023/09/15 04:41:43;;;;;;;2.83;1.30;;;10.60;99.90;;;;;;5066477;28;20131;-87
2023/09/15 04:44:10;;;;;;;1.73;1.40;;;10.50;99.90;;;;;;5087276;28;20120;-87
2023/09/15 04:46:35;;;;;;;2.97;1.50;;;10.50;99.90;;;;;;5066141;28;20419;-87
2023/09/15 04:49:01;;;;;;;2.95;1.50;;;10.50;99.90;;;;;;5073343;28;20047;-87
2023/09/15 04:51:28;;;;;;;2.17;1.30;;;10.50;99.90;;;;;;5071084;28;20041;-87
2023/09/15 04:53:54;;;;;;;1.88;1.40;;;10.50;99.90;;;;;;5039544;28;20504;-87
2023/09/15 04:56:20;;;;;;;1.60;1.35;;;10.40;99.90;;;;;;5051921;28;20055;-87
2023/09/15 04:58:45;;;;;;;2.58;1.38;;;10.40;99.90;;;;;;5061667;28;20540;-87
2023/09/15 05:01:16;;;;;;;3.47;1.40;;;10.30;99.90;;;;;;5058142;28;20569;-87
2023/09/15 05:03:44;;;;;;;2.53;1.45;;;10.40;99.90;;;;;;5060369;28;20393;-87
2023/09/15 05:06:09;;;;;;;2.70;1.40;;;10.40;99.90;;;;;;5069603;28;20040;-87
2023/09/15 05:08:35;;;;;;;3.03;1.48;;;11.20;99.90;;;;;;5062743;28;20047;-87
2023/09/15 05:11:01;;;;;;;1.85;1.38;;;10.40;99.90;;;;;;5071389;28;20071;-87
2023/09/15 05:13:26;;;;;;;2.60;1.38;;;10.40;99.90;;;;;;5059235;28;20472;-87
2023/09/15 05:15:52;;;;;;;2.38;1.50;;;10.40;99.90;;;;;;5064877;28;20044;-87
2023/09/15 05:18:18;;;;;;;2.22;1.38;;;10.40;99.90;;;;;;5078538;28;20032;-87
2023/09/15 05:20:44;;;;;;;2.20;1.40;;;10.40;99.90;;;;;;5064011;28;20513;-87
2023/09/15 05:23:09;;;;;;;2.35;1.40;;;10.40;99.90;;;;;;5051858;28;20051;-87
2023/09/15 05:25:35;;;;;;;2.40;1.42;;;10.50;99.90;;;;;;5057102;28;20131;-87
2023/09/15 05:28:01;;;;;;;1.73;1.40;;;10.50;99.90;;;;;;5064303;28;20044;-87
2023/09/15 05:30:29;;;;;;;2.85;1.52;;;10.50;99.90;;;;;;5056748;28;20070;-87
2023/09/15 05:32:55;;;;;;;2.55;1.40;;;10.40;99.90;;;;;;5069181;28;20098;-86
2023/09/15 05:35:21;;;;;;;2.80;1.50;;;10.50;99.90;;;;;;5077507;28;20044;-87
2023/09/15 05:37:47;;;;;;;3.08;1.52;;;10.50;99.90;;;;;;5058916;28;20056;-87
2023/09/15 05:40:13;;;;;;;2.28;1.40;;;10.50;99.90;;;;;;5079395;28;20468;-87
2023/09/15 05:42:39;;;;;;;2.72;1.50;;;10.50;99.90;;;;;;5074629;28;20066;-87
2023/09/15 05:45:05;;;;;;;2.25;1.50;;;10.50;99.90;;;;;;5064906;28;20044;-86
2023/09/15 05:47:31;;;;;;;2.38;1.50;;;10.50;99.90;;;;;;5056788;28;20124;-86
2023/09/15 05:50:00;;;;;;;2.17;1.40;;;10.60;99.90;;;;;;5046574;28;20119;-87
2023/09/15 05:52:26;;;;;;;2.47;1.55;;;10.60;99.90;;;;;;5065548;28;20040;-86
2023/09/15 05:54:52;;;;;;;3.00;1.50;;;10.70;99.90;;;;;;5064034;28;20043;-87
2023/09/15 05:57:17;;;;;;;2.92;1.60;;;10.70;99.90;;;;;;5077090;28;20040;-87
2023/09/15 05:59:43;;;;;;;2.08;1.42;;;10.70;99.90;;;;;;5066251;28;20098;-87
2023/09/15 06:02:09;;;;;;;2.60;1.50;;;10.80;99.90;;;;;;5060985;28;20088;-87
2023/09/15 06:04:34;;;;;;;3.85;1.60;;;10.90;99.90;;;;;;5067746;28;20523;-87
2023/09/15 06:07:00;;;;;;;3.03;1.50;;;11.00;99.90;;;;;;5072505;28;20051;-87
2023/09/15 06:09:26;;;;;;;3.35;1.50;;;11.00;99.90;;;;;;5044615;28;20543;-87
2023/09/15 06:11:52;;;;;;;3.22;1.70;;;11.10;99.90;;;;;;5066428;28;20158;-87
2023/09/15 06:14:18;;;;;;;3.75;1.60;;;11.20;99.90;;;;;;5057483;28;20040;-87
2023/09/15 06:16:43;;;;;;;1.98;1.40;;;11.30;99.90;;;;;;5061205;28;20744;-87
2023/09/15 06:19:09;;;;;;;2.60;1.50;;;11.40;99.90;;;;;;5063051;28;20402;-87
2023/09/15 06:21:35;;;;;;;2.28;1.30;;;11.40;99.90;;;;;;5065391;28;20055;-87
2023/09/15 06:24:01;;;;;;;0.65;0.65;;;11.50;99.90;;;;;;5067566;28;20425;-87
2023/09/15 06:26:27;;;;;;;0.57;0.57;;;11.60;99.90;;;;;;5050891;28;20493;-87
2023/09/15 06:28:52;;;;;;;0.90;0.70;;;11.70;99.90;;;;;;5035242;28;20048;-88
2023/09/15 06:31:19;;;;;;;0.90;0.73;;;11.70;99.90;;;;;;5057564;28;20075;-87
2023/09/15 06:33:45;;;;;;;0.70;0.70;;;11.80;99.90;;;;;;5069338;28;20040;-86
2023/09/15 06:36:10;;;;;;;0.82;0.82;;;11.90;99.90;;;;;;5081050;28;20493;-87
2023/09/15 06:38:39;;;;;;;0.70;0.70;;;11.10;99.90;;;;;;5062420;28;20063;-88
2023/09/15 06:41:14;;;;;;;0.88;0.82;;;12.00;99.90;;;;;;5039374;28;20059;-90
2023/09/15 06:43:40;;;;;;;1.67;1.23;;;12.10;99.90;;;;;;5050488;28;20056;-88
2023/09/15 06:46:05;;;;;;;1.40;1.10;;;12.20;99.90;;;;;;5030645;28;20072;-88
2023/09/15 06:48:33;;;;;;;1.95;1.10;;;12.30;99.90;;;;;;5063707;28;20187;-88
2023/09/15 06:50:59;;;;;;;1.63;1.20;;;12.30;99.90;;;;;;5059957;28;20093;-88
2023/09/15 06:53:25;;;;;;;1.48;1.10;;;12.40;99.90;;;;;;5055911;28;20035;-88
2023/09/15 06:55:54;;;;;;;1.50;1.00;;;12.50;99.90;;;;;;5044928;28;20484;-88
2023/09/15 06:58:20;;;;;;;1.75;1.10;;;12.60;99.90;;;;;;5045107;28;20051;-88
2023/09/15 07:00:45;;;;;;;1.17;1.08;;;12.80;99.90;;;;;;5042826;28;20438;-88
2023/09/15 07:03:11;;;;;;;1.08;1.00;;;12.90;99.90;;;;;;5062015;28;20040;-89
2023/09/15 07:05:40;;;;;;;0.80;0.80;;;13.00;99.90;;;;;;5075324;28;20028;-88
2023/09/15 07:08:05;;;;;;;0.77;0.77;;;13.00;99.90;;;;;;5035928;28;20162;-87
2023/09/15 07:10:31;;;;;;;1.98;1.10;;;13.20;99.90;;;;;;5035214;28;20522;-88
2023/09/15 07:12:57;;;;;;;1.42;1.02;;;13.30;99.90;;;;;;5064075;28;20043;-88
2023/09/15 07:15:22;;;;;;;0.93;0.90;;;13.50;99.90;;;;;;5032721;28;20040;-88
2023/09/15 07:17:48;;;;;;;1.52;1.08;;;13.40;99.90;;;;;;5073306;28;20048;-88
2023/09/15 07:20:14;;;;;;;1.25;1.10;;;13.50;99.90;;;;;;5044182;28;20048;-88
2023/09/15 07:22:40;;;;;;;1.85;1.10;;;13.60;99.90;;;;;;5038333;28;20055;-88
2023/09/15 07:25:06;;;;;;;1.25;1.10;;;13.70;99.90;;;;;;5054303;28;20043;-88
2023/09/15 07:27:32;;;;;;;0.95;0.90;;;13.80;99.90;;;;;;5028642;28;20051;-88
2023/09/15 07:29:57;;;;;;;0.93;0.90;;;13.90;99.90;;;;;;5066372;28;20040;-88
2023/09/15 07:32:23;;;;;;;1.02;1.02;;;14.00;99.90;;;;;;5048714;28;20055;-87
2023/09/15 07:34:49;;;;;;;1.77;1.10;;;14.10;99.90;;;;;;5065437;28;20047;-86
2023/09/15 07:37:15;;;;;;;1.88;1.10;;;14.20;99.90;;;;;;5057013;28;20036;-87
2023/09/15 07:39:41;;;;;;;1.38;1.00;;;14.20;99.90;;;;;;5077629;28;20048;-87
2023/09/15 07:42:08;;;;;;;1.40;1.05;;;14.40;99.90;;;;;;5056664;28;20207;-87
2023/09/15 07:44:34;;;;;;;1.17;1.00;;;14.50;99.90;;;;;;5040751;28;20047;-86
2023/09/15 07:47:00;;;;;;;2.15;1.10;;;14.60;99.90;;;;;;5066351;28;20051;-87
2023/09/15 07:49:26;;;;;;;1.98;1.08;;;17.70;99.90;;;;;;5063783;28;20040;-87
2023/09/15 07:51:52;;;;;;;1.30;0.73;;;14.80;99.90;;;;;;5039536;28;20079;-87
2023/09/15 07:54:19;;;;;;;1.05;0.90;;;14.90;99.90;;;;;;5038456;28;20093;-87
2023/09/15 07:56:44;;;;;;;0.65;0.65;;;15.00;99.90;;;;;;5062930;28;20036;-87
2023/09/15 07:59:10;;;;;;;0.70;0.70;;;15.10;99.90;;;;;;5035253;28;20040;-86
2023/09/15 08:01:36;;;;;;;0.70;0.70;;;15.20;99.90;;;;;;5059006;28;20048;-87
2023/09/15 08:04:02;;;;;;;0.68;0.68;;;15.40;99.90;;;;;;5035351;28;20096;-88
2023/09/15 08:06:33;;;;;;;0.80;0.80;;;15.40;99.90;;;;;;5071557;28;20036;-88
2023/09/15 08:08:59;;;;;;;1.58;0.80;;;15.50;99.90;;;;;;5061669;28;20101;-88
2023/09/15 08:11:25;;;;;;;0.60;0.60;;;15.60;99.90;;;;;;5055308;28;20135;-88
2023/09/15 08:13:51;;;;;;;0.90;0.80;;;15.70;99.90;;;;;;5071474;28;20039;-88
2023/09/15 08:16:16;;;;;;;1.23;0.70;;;15.80;99.90;;;;;;5053550;28;20048;-87
2023/09/15 08:18:42;;;;;;;0.98;0.80;;;15.90;99.90;;;;;;5026864;28;20207;-89
2023/09/15 08:21:08;;;;;;;0.82;0.73;;;16.00;99.90;;;;;;5059413;28;20043;-88
2023/09/15 08:23:34;;;;;;;0.70;0.70;;;16.10;99.90;;;;;;5069239;28;20048;-87
2023/09/15 08:26:01;;;;;;;0.70;0.70;;;16.10;99.90;;;;;;5060707;28;20055;-88
2023/09/15 08:28:27;;;;;;;0.77;0.68;;;16.20;99.90;;;;;;5058787;28;20131;-87
2023/09/15 08:30:52;;;;;;;0.65;0.65;;;16.30;99.90;;;;;;5075680;28;20115;-88
2023/09/15 08:33:18;;;;;;;1.10;0.80;;;16.50;99.90;;;;;;5047998;28;20453;-88
2023/09/15 08:35:44;;;;;;;0.85;0.80;;;16.60;99.90;;;;;;5058133;28;20056;-88
2023/09/15 08:38:12;;;;;;;0.80;0.80;;;16.70;99.90;;;;;;5040673;28;20045;-88
2023/09/15 08:40:48;;;;;;;0.98;0.77;;;16.80;99.90;;;;;;5054853;28;20064;-87
2023/09/15 08:43:14;;;;;;;0.70;0.70;;;16.80;99.90;;;;;;5057919;28;20048;-88
2023/09/15 08:45:45;;;;;;;0.82;0.82;;;16.90;99.90;;;;;;5059588;28;20044;-87
2023/09/15 08:48:17;;;;;;;0.90;0.60;;;17.00;99.90;;;;;;5059711;28;20472;-87
2023/09/15 08:50:44;;;;;;;1.60;0.90;;;17.00;99.90;;;;;;5057265;28;20039;-87
2023/09/15 08:53:11;;;;;;;0.60;0.60;;;17.20;99.90;;;;;;5040855;28;20279;-88
2023/09/15 08:55:37;;;;;;;1.00;0.60;;;17.20;99.90;;;;;;5062100;28;20111;-87
2023/09/15 08:58:04;;;;;;;1.00;0.77;;;17.30;99.90;;;;;;5056844;28;20060;-88
2023/09/15 09:00:32;;;;;;;2.13;1.00;;;17.40;99.90;;;;;;5032475;28;20541;-86
2023/09/15 09:02:59;;;;;;;1.20;0.93;;;17.50;99.90;;;;;;5057110;28;20088;-87
2023/09/15 09:05:27;;;;;;;1.60;1.10;;;17.60;99.90;;;;;;5058474;28;20052;-87
2023/09/15 09:07:55;;;;;;;1.08;0.90;;;17.70;99.90;;;;;;5060774;28;20102;-87
2023/09/15 09:10:23;;;;;;;1.67;0.93;;;17.80;99.90;;;;;;5062386;28;20036;-88
2023/09/15 09:12:49;;;;;;;1.60;1.00;;;17.90;99.90;;;;;;5058817;28;20122;-89
2023/09/15 09:15:16;;;;;;;0.65;0.63;;;18.00;99.90;;;;;;5043097;28;20044;-89
2023/09/15 09:17:43;;;;;;;1.55;0.90;;;18.10;99.90;;;;;;5051295;28;20101;-87
2023/09/15 09:20:21;;;;;;;1.58;0.80;;;18.20;99.90;;;;;;5055372;28;20093;-87
2023/09/15 09:22:47;;;;;;;1.15;0.85;;;18.30;99.90;;;;;;5053477;28;20045;-89
2023/09/15 09:25:13;;;;;;;1.30;0.80;;;18.30;99.90;;;;;;5052712;28;20048;-88
2023/09/15 09:27:38;;;;;;;1.90;1.30;;;18.40;99.90;;;;;;5067933;28;20146;-88
2023/09/15 09:30:05;;;;;;;1.02;0.95;;;18.50;99.90;;;;;;5051759;28;20438;-88
2023/09/15 09:32:30;;;;;;;1.23;0.90;;;18.50;99.90;;;;;;5058279;28;20037;-88
2023/09/15 09:34:56;;;;;;;2.83;1.20;;;18.60;99.90;;;;;;5034375;28;20056;-87
2023/09/15 09:37:26;;;;;;;1.65;1.00;;;18.60;99.90;;;;;;5060273;28;20128;-88
2023/09/15 09:39:53;;;;;;;2.00;0.98;;;18.70;99.90;;;;;;5056889;28;20053;-87
2023/09/15 09:42:23;;;;;;;2.28;1.08;;;18.70;99.90;;;;;;5056732;28;20606;-88
2023/09/15 09:44:50;;;;;;;1.38;1.08;;;18.80;99.90;;;;;;5038194;28;20473;-88
2023/09/15 09:47:16;;;;;;;2.22;1.10;;;18.80;99.90;;;;;;5054168;28;20041;-87
2023/09/15 09:49:43;;;;;;;1.70;0.90;;;18.80;99.90;;;;;;5047457;28;20052;-88
2023/09/15 09:52:11;;;;;;;1.52;1.00;;;18.90;99.90;;;;;;5062205;28;20122;-87
2023/09/15 09:54:37;;;;;;;2.72;1.30;;;18.80;99.90;;;;;;5057798;28;20102;-88
2023/09/15 09:57:03;;;;;;;2.65;1.20;;;18.90;99.90;;;;;;5041841;28;20041;-88
2023/09/15 09:59:29;;;;;;;1.88;1.05;;;18.90;99.90;;;;;;5060610;28;20504;-88
2023/09/15 10:01:55;;;;;;;1.35;1.05;;;19.00;99.90;;;;;;5060888;28;20044;-88
2023/09/15 10:04:22;;;;;;;1.10;0.93;;;19.00;99.90;;;;;;5060403;28;20415;-88
2023/09/15 10:06:49;;;;;;;1.85;1.20;;;19.00;99.90;;;;;;5048905;28;20103;-88
2023/09/15 10:09:15;;;;;;;3.25;1.27;;;19.10;99.90;;;;;;5064412;28;20049;-89
2023/09/15 10:11:42;;;;;;;2.40;1.27;;;19.20;99.90;;;;;;5041982;28;20037;-88
2023/09/15 10:14:09;;;;;;;1.90;1.20;;;19.20;99.90;;;;;;5063417;28;20044;-89
2023/09/15 10:16:36;;;;;;;1.98;1.10;;;19.40;99.90;;;;;;5055251;28;20056;-89
2023/09/15 10:19:03;;;;;;;1.25;1.10;;;19.40;99.90;;;;;;5061881;28;20113;-88
2023/09/15 10:21:30;;;;;;;2.20;1.15;;;19.40;99.90;;;;;;5057338;28;20142;-88
2023/09/15 10:24:10;;;;;;;2.35;1.10;;;19.40;99.90;;;;;;5040462;28;20041;-88
2023/09/15 10:26:41;;;;;;;2.05;1.20;;;19.50;99.90;;;;;;5047633;28;20074;-89
2023/09/15 10:29:08;;;;;;;1.52;1.20;;;19.60;99.90;;;;;;5038251;28;20033;-88
2023/09/15 10:31:35;;;;;;;1.55;0.93;;;19.60;99.90;;;;;;5055376;28;20113;-91
2023/09/15 10:34:04;;;;;;;2.05;1.00;;;19.70;99.90;;;;;;5063143;28;20155;-89
2023/09/15 10:36:32;;;;;;;1.65;1.05;;;19.80;99.90;;;;;;5059909;28;20049;-89
2023/09/15 10:39:09;;;;;;;2.75;1.30;;;19.90;99.90;;;;;;5053666;28;20067;-89
2023/09/15 10:41:34;;;;;;;1.70;1.20;;;19.90;99.90;;;;;;5039238;28;20095;-91
2023/09/15 10:44:01;;;;;;;1.45;0.90;;;19.90;99.90;;;;;;5064800;28;20785;-90
2023/09/15 10:46:38;;;;;;;0.90;0.90;;;19.90;99.90;;;;;;5062025;28;20070;-90
2023/09/15 10:49:18;;;;;;;1.67;1.10;;;20.00;99.90;;;;;;5052197;28;20047;-89
2023/09/15 10:52:10;;;;;;;1.58;0.90;;;20.00;99.90;;;;;;5057123;28;20048;-89
2023/09/15 10:54:36;;;;;;;1.23;0.90;;;20.00;99.90;;;;;;5040942;28;20048;-90
2023/09/15 10:57:02;;;;;;;1.48;0.95;;;20.10;99.90;;;;;;5048047;28;20041;-90
2023/09/15 10:59:28;;;;;;;1.70;0.82;;;20.10;99.90;;;;;;5057412;28;20045;-89
2023/09/15 11:01:55;;;;;;;0.80;0.80;;;20.20;99.90;;;;;;5054142;28;20163;-89
2023/09/15 11:04:21;;;;;;;1.10;0.95;;;20.30;99.90;;;;;;5060684;28;20087;-90
2023/09/15 11:06:48;;;;;;;2.58;1.98;;;20.30;99.90;;;;;;5041133;28;20098;-89
2023/09/15 11:09:14;;;;;;;2.15;1.20;;;20.30;99.90;;;;;;5074268;28;20044;-91
2023/09/15 11:11:45;;;;;;;1.48;0.90;;;20.30;99.90;;;;;;5061758;28;20044;-90
2023/09/15 11:14:15;;;;;;;1.73;1.05;;;20.30;99.90;;;;;;5054512;28;20045;-86
2023/09/15 11:16:51;;;;;;;10.55;2.58;;;20.40;99.90;;;;;;5054627;28;20128;-87
2023/09/15 11:19:18;;;;;;;2.78;1.10;;;20.40;99.90;;;;;;5058012;28;20084;-85
2023/09/15 11:21:45;;;;;;;6.45;1.42;;;20.50;99.90;;;;;;5053750;28;20166;-86
2023/09/15 11:24:11;;;;;;;2.78;1.15;;;20.50;99.90;;;;;;5045133;28;20117;-86
2023/09/15 11:26:45;;;;;;;1.30;0.95;;;20.50;99.90;;;;;;5045925;28;20044;-85
2023/09/15 11:29:11;;;;;;;1.38;1.00;;;20.50;99.90;;;;;;5046588;28;20052;-86
2023/09/15 11:31:37;;;;;;;1.80;1.08;;;20.60;99.90;;;;;;5045983;28;20037;-87
2023/09/15 11:34:05;;;;;;;2.78;1.10;;;20.60;99.90;;;;;;5055097;28;20037;-85
2023/09/15 11:36:35;;;;;;;1.17;1.00;;;20.50;99.90;;;;;;5060266;28;20119;-86
2023/09/15 11:39:11;;;;;;;1.33;1.00;;;20.50;99.90;;;;;;5053923;28;20052;-85
2023/09/15 11:41:38;;;;;;;1.30;0.95;;;20.50;99.90;;;;;;5059444;28;20119;-85
2023/09/15 11:44:06;;;;;;;1.58;1.00;;;20.50;99.90;;;;;;5057524;28;20101;-85
2023/09/15 11:46:38;;;;;;;1.52;0.90;;;20.60;99.90;;;;;;5060635;28;20044;-85
2023/09/15 11:49:04;;;;;;;1.20;0.90;;;20.60;99.90;;;;;;5036756;28;20051;-86
2023/09/15 11:51:31;;;;;;;1.67;0.80;;;20.70;99.90;;;;;;5046434;28;20040;-86
2023/09/15 11:54:00;;;;;;;1.83;1.05;;;20.70;99.90;;;;;;5058912;28;20082;-87
2023/09/15 11:56:29;;;;;;;1.10;1.00;;;20.80;99.90;;;;;;5032429;28;20044;-86
2023/09/15 11:58:55;;;;;;;2.22;1.00;;;21.00;99.90;;;;;;5042549;28;20123;-86
2023/09/15 12:01:22;;;;;;;0.88;0.82;;;20.90;99.90;;;;;;5072102;28;20123;-86
2023/09/15 12:03:48;;;;;;;3.53;3.20;;;20.90;99.90;;;;;;5031938;28;20045;-87
2023/09/15 12:06:18;;;;;;;2.15;0.93;;;20.90;99.90;;;;;;5072652;28;20404;-88
2023/09/15 12:08:49;;;;;;;2.28;1.10;;;20.90;99.90;;;;;;5060695;28;20110;-87
2023/09/15 12:11:16;;;;;;;1.67;1.00;;;20.90;99.90;;;;;;5063951;28;20041;-88
2023/09/15 12:13:42;;;;;;;1.58;0.93;;;21.00;99.90;;;;;;5049192;28;20048;-85
2023/09/15 12:16:18;;;;;;;1.60;1.00;;;21.00;99.90;;;;;;5077178;28;20102;-84
2023/09/15 12:18:45;;;;;;;2.28;1.25;;;21.00;99.90;;;;;;5046455;28;20087;-85
2023/09/15 12:21:15;;;;;;;1.30;0.90;;;21.00;99.90;;;;;;5065116;28;20044;-85
2023/09/15 12:23:42;;;;;;;1.75;1.10;;;21.00;99.90;;;;;;5061778;28;20040;-84
2023/09/15 12:26:09;;;;;;;1.63;0.80;;;20.90;99.90;;;;;;5079665;28;20071;-84
2023/09/15 12:28:35;;;;;;;2.25;1.10;;;21.00;99.90;;;;;;5073492;28;20477;-84
2023/09/15 12:31:01;;;;;;;2.20;1.10;;;20.60;99.90;;;;;;5066159;28;20043;-85
2023/09/15 12:33:29;;;;;;;0.80;0.80;;;20.50;99.90;;;;;;5064289;28;20040;-84
2023/09/15 12:35:56;;;;;;;1.55;1.20;;;20.50;99.90;;;;;;5064473;28;20057;-84
2023/09/15 12:38:22;;;;;;;1.05;0.75;;;20.40;99.90;;;;;;5062921;28;20093;-84
2023/09/15 12:40:49;;;;;;;0.80;0.80;;;20.30;99.90;;;;;;5078248;28;20510;-84
2023/09/15 12:43:15;;;;;;;0.77;0.77;;;20.50;99.90;;;;;;5064017;28;20505;-84
2023/09/15 12:45:41;;;;;;;0.95;0.80;;;20.60;99.90;;;;;;5065847;28;20044;-85
2023/09/15 12:48:09;;;;;;;0.70;0.70;;;;;;;;;;5063451;28;20040;-84